Terminal Aerodrome Forecast
Issued by NWS Wilmington, OH

Current Version | Previous Version | Text Only | Print | Product List | Glossary Off
Versions: 1 2 3 4 5 6 7 8 9 10 11 12 13 14 15 16 17 18 19 20 21 22 23 24 25 26 27

755
FTUS41 KILN 180540
TAFILN
TAF
KILN 180540Z 1806/1906 27012KT P6SM VCSH OVC012
      TEMPO 1806/1810 3SM -DZ BR OVC008
     FM181300 26010KT P6SM OVC012
     FM190300 24005KT P6SM SCT025=

USA.gov is the U.S. government's official web portal to all federal, state and local government web resources and services.